Portada
METAR-TAF:

METAR-TAF

Aeroports :

Wellington, Nova Zelanda

latitud: 41-20S, longitud: 174-48E, altitud: 12 m

Observació

L'informe es va fer fa 32 minuts, a les 18:00 UTC
Vent 2 kt del Nord
Temperatura 12°C
Humitat 94%
Pressió 1025 hPa
Visibilitat 10 km o més

METAR: NZWN 031800Z AUTO 35002KT 9999 NCD 12/11 Q1025 NOSIG

Hora: 07:32 (18:32 UTC)

Pronòstic

L'informe es va fer fa 1 hora i 24 minuts, a les 17:08 UTC
Pronòstic vàlid del 03 a les 18 UTC al 04 a les 18 UTC
Vent 8 kt del Sud/Sud-Est
Visibilitat 10 km o més
Escasses núvols a una alçada de 1200 ft
Núvols disperses a una alçada de 3000 ft
A partir de les 04 a les 0600 UTC
Vent 10 kt del Nord/Nord-Est
Visibilitat 10 km o més
Escasses núvols a una alçada de 3000 ft

TAF: NZWN 031708Z 0318/0418 16008KT 9999 FEW012 SCT030 FM040600 03010KT 9999 FEW030

Observacions i pronòstics meteorològics de més de 4000 aeroports (METAR i TAF).

Les estacions disponibles són els punts grocs i vermells al mapa.

Posi el ratolí al punt desitjat per veure el nom de l'estació.

Feu clic per veure les observacions i els pronòstics meteorològics.

Per canviar el mapa: feu clic els botons verds amb una creu de color negre per apropar; al botó verd amb un guió per allunyar la imatge; o en les fletxes verdes per a mapes adjacents.


METAR-TAF: